Terminal Aerodrome Forecast
Issued by NWS Cleveland, OH

Home | Current Version | Previous Version | Graphics & Text | Print | Product List | Glossary On
Versions: 1 2 3 4 5 6 7 8 9 10 11 12 13 14 15 16
719
FTUS41 KCLE 262327
TAFERI
TAF
KERI 262327Z 2700/2724 20015KT P6SM SCT100
     FM270200 20012KT P6SM SCT040 BKN100 WS020/25040KT
     FM271200 20007KT P6SM BKN040 OVC100=

USA.gov is the U.S. government's official web portal to all federal, state and local government web resources and services.